Terminal Aerodrome Forecast
Issued by NWS

Home | Current Version | Previous Version | Text Only | Print | Product List | Glossary On
Versions: 1 2 3 4 5 6 7 8 9 10 11 12 13 14 15 16 17 18 19 20 21 22 23 24 25 26 27 28 29 30
000
FTUS41 KOKX 211405 AAA
TAFSWF
TAF AMD
KSWF 211405Z 2114/2218 25007KT P6SM SCT250
     FM211800 25010G16KT P6SM SCT050 SCT250
     FM220000 24006KT P6SM SCT050 SCT080 BKN250
     FM221000 21003KT 5SM BR SCT150 BKN250
      AMD NOT SKED=

USA.gov is the U.S. government's official web portal to all federal, state and local government web resources and services.